sensor_id;sensor_type;location;lat;lon;timestamp;P1;P2;P0
61592;PMS5003;47485;51.378;-1.342;2023-02-26T00:01:41;3;3;
61592;PMS5003;47485;51.378;-1.342;2023-02-26T00:04:08;5;5;
61592;PMS5003;47485;51.378;-1.342;2023-02-26T00:06:37;6;5;
61592;PMS5003;47485;51.378;-1.342;2023-02-26T00:09:04;13;5;
61592;PMS5003;47485;51.378;-1.342;2023-02-26T00:11:32;9;6;
61592;PMS5003;47485;51.378;-1.342;2023-02-26T00:13:59;9;6;
61592;PMS5003;47485;51.378;-1.342;2023-02-26T00:16:28;8;6;
61592;PMS5003;47485;51.378;-1.342;2023-02-26T00:18:57;5;5;
61592;PMS5003;47485;51.378;-1.342;2023-02-26T00:21:27;3;3;
61592;PMS5003;47485;51.378;-1.342;2023-02-26T00:23:56;11;4;
61592;PMS5003;47485;51.378;-1.342;2023-02-26T00:26:24;4;4;
61592;PMS5003;47485;51.378;-1.342;2023-02-26T00:28:53;7;5;
61592;PMS5003;47485;51.378;-1.342;2023-02-26T00:31:21;8;4;
61592;PMS5003;47485;51.378;-1.342;2023-02-26T00:33:49;9;6;
61592;PMS5003;47485;51.378;-1.342;2023-02-26T00:36:20;8;7;
61592;PMS5003;47485;51.378;-1.342;2023-02-26T00:38:54;10;7;
61592;PMS5003;47485;51.378;-1.342;2023-02-26T00:41:29;7;7;
61592;PMS5003;47485;51.378;-1.342;2023-02-26T00:43:58;11;6;
61592;PMS5003;47485;51.378;-1.342;2023-02-26T00:46:27;10;9;
61592;PMS5003;47485;51.378;-1.342;2023-02-26T00:49:02;11;5;
61592;PMS5003;47485;51.378;-1.342;2023-02-26T00:51:39;10;8;
61592;PMS5003;47485;51.378;-1.342;2023-02-26T00:54:12;9;6;
61592;PMS5003;47485;51.378;-1.342;2023-02-26T00:56:44;12;9;
61592;PMS5003;47485;51.378;-1.342;2023-02-26T00:59:11;6;6;
61592;PMS5003;47485;51.378;-1.342;2023-02-26T01:01:37;7;4;
61592;PMS5003;47485;51.378;-1.342;2023-02-26T01:04:04;6;4;
61592;PMS5003;47485;51.378;-1.342;2023-02-26T01:06:33;6;5;
61592;PMS5003;47485;51.378;-1.342;2023-02-26T01:09:04;8;6;
61592;PMS5003;47485;51.378;-1.342;2023-02-26T01:11:38;9;6;
61592;PMS5003;47485;51.378;-1.342;2023-02-26T01:14:06;7;6;
61592;PMS5003;47485;51.378;-1.342;2023-02-26T01:16:36;7;5;
61592;PMS5003;47485;51.378;-1.342;2023-02-26T01:19:13;5;3;
61592;PMS5003;47485;51.378;-1.342;2023-02-26T01:21:47;7;3;
61592;PMS5003;47485;51.378;-1.342;2023-02-26T01:24:19;2;2;
61592;PMS5003;47485;51.378;-1.342;2023-02-26T01:26:50;3;3;
61592;PMS5003;47485;51.378;-1.342;2023-02-26T01:29:17;4;3;
61592;PMS5003;47485;51.378;-1.342;2023-02-26T01:31:47;9;6;
61592;PMS5003;47485;51.378;-1.342;2023-02-26T01:34:20;2;2;
61592;PMS5003;47485;51.378;-1.342;2023-02-26T01:36:53;8;7;
61592;PMS5003;47485;51.378;-1.342;2023-02-26T01:39:27;3;3;
61592;PMS5003;47485;51.378;-1.342;2023-02-26T01:41:59;4;2;
61592;PMS5003;47485;51.378;-1.342;2023-02-26T01:44:38;5;2;
61592;PMS5003;47485;51.378;-1.342;2023-02-26T01:47:15;8;3;
61592;PMS5003;47485;51.378;-1.342;2023-02-26T01:49:46;7;4;
61592;PMS5003;47485;51.378;-1.342;2023-02-26T01:53:25;5;4;
61592;PMS5003;47485;51.378;-1.342;2023-02-26T01:55:54;5;3;
61592;PMS5003;47485;51.378;-1.342;2023-02-26T01:58:22;5;3;
61592;PMS5003;47485;51.378;-1.342;2023-02-26T02:00:50;12;7;
61592;PMS5003;47485;51.378;-1.342;2023-02-26T02:03:17;5;4;
61592;PMS5003;47485;51.378;-1.342;2023-02-26T02:05:46;6;3;
61592;PMS5003;47485;51.378;-1.342;2023-02-26T02:08:17;9;5;
61592;PMS5003;47485;51.378;-1.342;2023-02-26T02:10:46;6;4;
61592;PMS5003;47485;51.378;-1.342;2023-02-26T02:13:19;4;3;
61592;PMS5003;47485;51.378;-1.342;2023-02-26T02:15:58;2;2;
61592;PMS5003;47485;51.378;-1.342;2023-02-26T02:18:34;5;3;
61592;PMS5003;47485;51.378;-1.342;2023-02-26T02:21:13;5;4;
61592;PMS5003;47485;51.378;-1.342;2023-02-26T02:23:52;8;5;
61592;PMS5003;47485;51.378;-1.342;2023-02-26T02:26:34;6;5;
61592;PMS5003;47485;51.378;-1.342;2023-02-26T02:30:18;6;4;
61592;PMS5003;47485;51.378;-1.342;2023-02-26T02:32:58;5;3;
61592;PMS5003;47485;51.378;-1.342;2023-02-26T02:35:29;4;2;
61592;PMS5003;47485;51.378;-1.342;2023-02-26T02:38:02;4;3;
61592;PMS5003;47485;51.378;-1.342;2023-02-26T02:40:34;5;3;
61592;PMS5003;47485;51.378;-1.342;2023-02-26T02:43:05;4;4;
61592;PMS5003;47485;51.378;-1.342;2023-02-26T02:45:37;5;5;
61592;PMS5003;47485;51.378;-1.342;2023-02-26T02:48:09;6;4;
61592;PMS5003;47485;51.378;-1.342;2023-02-26T02:50:43;7;3;
61592;PMS5003;47485;51.378;-1.342;2023-02-26T02:53:15;5;4;
61592;PMS5003;47485;51.378;-1.342;2023-02-26T02:55:47;5;3;
61592;PMS5003;47485;51.378;-1.342;2023-02-26T02:58:21;4;2;
61592;PMS5003;47485;51.378;-1.342;2023-02-26T03:00:53;8;5;
61592;PMS5003;47485;51.378;-1.342;2023-02-26T03:03:24;2;2;
61592;PMS5003;47485;51.378;-1.342;2023-02-26T03:05:56;6;4;
61592;PMS5003;47485;51.378;-1.342;2023-02-26T03:08:23;7;2;
61592;PMS5003;47485;51.378;-1.342;2023-02-26T03:10:53;5;4;
61592;PMS5003;47485;51.378;-1.342;2023-02-26T03:13:21;6;4;
61592;PMS5003;47485;51.378;-1.342;2023-02-26T03:15:54;8;3;
61592;PMS5003;47485;51.378;-1.342;2023-02-26T03:18:30;7;5;
61592;PMS5003;47485;51.378;-1.342;2023-02-26T03:21:08;6;5;
61592;PMS5003;47485;51.378;-1.342;2023-02-26T03:23:42;4;2;
61592;PMS5003;47485;51.378;-1.342;2023-02-26T03:26:18;9;8;
61592;PMS5003;47485;51.378;-1.342;2023-02-26T03:28:50;6;5;
61592;PMS5003;47485;51.378;-1.342;2023-02-26T03:31:22;3;3;
61592;PMS5003;47485;51.378;-1.342;2023-02-26T03:33:56;4;4;
61592;PMS5003;47485;51.378;-1.342;2023-02-26T03:36:28;6;4;
61592;PMS5003;47485;51.378;-1.342;2023-02-26T03:39:02;6;3;
61592;PMS5003;47485;51.378;-1.342;2023-02-26T03:41:35;3;3;
61592;PMS5003;47485;51.378;-1.342;2023-02-26T03:44:08;5;4;
61592;PMS5003;47485;51.378;-1.342;2023-02-26T03:46:41;6;3;
61592;PMS5003;47485;51.378;-1.342;2023-02-26T03:49:13;8;7;
61592;PMS5003;47485;51.378;-1.342;2023-02-26T03:51:46;6;4;
61592;PMS5003;47485;51.378;-1.342;2023-02-26T03:54:16;9;5;
61592;PMS5003;47485;51.378;-1.342;2023-02-26T03:56:47;6;4;
61592;PMS5003;47485;51.378;-1.342;2023-02-26T03:59:15;7;4;
61592;PMS5003;47485;51.378;-1.342;2023-02-26T04:01:44;5;5;
61592;PMS5003;47485;51.378;-1.342;2023-02-26T04:04:16;6;5;
61592;PMS5003;47485;51.378;-1.342;2023-02-26T04:06:48;4;4;
61592;PMS5003;47485;51.378;-1.342;2023-02-26T04:09:15;6;5;
61592;PMS5003;47485;51.378;-1.342;2023-02-26T04:11:42;5;5;
61592;PMS5003;47485;51.378;-1.342;2023-02-26T04:14:11;6;4;
61592;PMS5003;47485;51.378;-1.342;2023-02-26T04:16:38;3;3;
61592;PMS5003;47485;51.378;-1.342;2023-02-26T04:19:04;4;3;
61592;PMS5003;47485;51.378;-1.342;2023-02-26T04:21:31;5;4;
61592;PMS5003;47485;51.378;-1.342;2023-02-26T04:23:58;4;4;
61592;PMS5003;47485;51.378;-1.342;2023-02-26T04:26:25;4;3;
61592;PMS5003;47485;51.378;-1.342;2023-02-26T04:28:52;6;5;
61592;PMS5003;47485;51.378;-1.342;2023-02-26T04:31:19;5;5;
61592;PMS5003;47485;51.378;-1.342;2023-02-26T04:33:46;4;4;
61592;PMS5003;47485;51.378;-1.342;2023-02-26T04:36:14;6;4;
61592;PMS5003;47485;51.378;-1.342;2023-02-26T04:38:40;6;4;
61592;PMS5003;47485;51.378;-1.342;2023-02-26T04:41:07;6;5;
61592;PMS5003;47485;51.378;-1.342;2023-02-26T04:43:35;5;5;
61592;PMS5003;47485;51.378;-1.342;2023-02-26T04:46:02;6;6;
61592;PMS5003;47485;51.378;-1.342;2023-02-26T04:48:29;9;8;
61592;PMS5003;47485;51.378;-1.342;2023-02-26T04:50:56;5;4;
61592;PMS5003;47485;51.378;-1.342;2023-02-26T04:53:23;9;6;
61592;PMS5003;47485;51.378;-1.342;2023-02-26T04:55:49;6;3;
61592;PMS5003;47485;51.378;-1.342;2023-02-26T04:58:17;7;4;
61592;PMS5003;47485;51.378;-1.342;2023-02-26T05:00:47;7;4;
61592;PMS5003;47485;51.378;-1.342;2023-02-26T05:03:14;7;5;
61592;PMS5003;47485;51.378;-1.342;2023-02-26T05:05:41;4;3;
61592;PMS5003;47485;51.378;-1.342;2023-02-26T05:08:09;6;5;
61592;PMS5003;47485;51.378;-1.342;2023-02-26T05:10:36;10;6;
61592;PMS5003;47485;51.378;-1.342;2023-02-26T05:13:03;6;6;
61592;PMS5003;47485;51.378;-1.342;2023-02-26T05:15:31;5;5;
61592;PMS5003;47485;51.378;-1.342;2023-02-26T05:17:58;5;4;
61592;PMS5003;47485;51.378;-1.342;2023-02-26T05:20:25;6;4;
61592;PMS5003;47485;51.378;-1.342;2023-02-26T05:22:53;5;5;
61592;PMS5003;47485;51.378;-1.342;2023-02-26T05:25:20;4;4;
61592;PMS5003;47485;51.378;-1.342;2023-02-26T05:27:47;6;4;
61592;PMS5003;47485;51.378;-1.342;2023-02-26T05:30:14;5;5;
61592;PMS5003;47485;51.378;-1.342;2023-02-26T05:32:42;6;4;
61592;PMS5003;47485;51.378;-1.342;2023-02-26T05:35:10;5;4;
61592;PMS5003;47485;51.378;-1.342;2023-02-26T05:37:37;4;4;
61592;PMS5003;47485;51.378;-1.342;2023-02-26T05:40:05;5;4;
61592;PMS5003;47485;51.378;-1.342;2023-02-26T05:42:34;5;5;
61592;PMS5003;47485;51.378;-1.342;2023-02-26T05:45:01;7;4;
61592;PMS5003;47485;51.378;-1.342;2023-02-26T05:47:28;7;4;
61592;PMS5003;47485;51.378;-1.342;2023-02-26T05:49:55;5;4;
61592;PMS5003;47485;51.378;-1.342;2023-02-26T05:52:21;4;4;
61592;PMS5003;47485;51.378;-1.342;2023-02-26T05:54:48;3;3;
61592;PMS5003;47485;51.378;-1.342;2023-02-26T05:57:15;4;4;
61592;PMS5003;47485;51.378;-1.342;2023-02-26T05:59:42;2;2;
61592;PMS5003;47485;51.378;-1.342;2023-02-26T06:02:09;5;2;
61592;PMS5003;47485;51.378;-1.342;2023-02-26T06:04:36;3;3;
61592;PMS5003;47485;51.378;-1.342;2023-02-26T06:07:03;5;4;
61592;PMS5003;47485;51.378;-1.342;2023-02-26T06:09:30;3;3;
61592;PMS5003;47485;51.378;-1.342;2023-02-26T06:11:57;4;4;
61592;PMS5003;47485;51.378;-1.342;2023-02-26T06:14:25;5;2;
61592;PMS5003;47485;51.378;-1.342;2023-02-26T06:16:52;3;3;
61592;PMS5003;47485;51.378;-1.342;2023-02-26T06:19:19;6;3;
61592;PMS5003;47485;51.378;-1.342;2023-02-26T06:21:46;6;3;
61592;PMS5003;47485;51.378;-1.342;2023-02-26T06:24:13;7;3;
61592;PMS5003;47485;51.378;-1.342;2023-02-26T06:26:41;5;4;
61592;PMS5003;47485;51.378;-1.342;2023-02-26T06:29:08;6;4;
61592;PMS5003;47485;51.378;-1.342;2023-02-26T06:31:36;5;3;
61592;PMS5003;47485;51.378;-1.342;2023-02-26T06:34:02;6;3;
61592;PMS5003;47485;51.378;-1.342;2023-02-26T06:36:29;5;4;
61592;PMS5003;47485;51.378;-1.342;2023-02-26T06:38:56;5;3;
61592;PMS5003;47485;51.378;-1.342;2023-02-26T06:41:23;6;4;
61592;PMS5003;47485;51.378;-1.342;2023-02-26T06:43:50;3;3;
61592;PMS5003;47485;51.378;-1.342;2023-02-26T06:46:17;9;6;
61592;PMS5003;47485;51.378;-1.342;2023-02-26T06:48:45;7;4;
61592;PMS5003;47485;51.378;-1.342;2023-02-26T06:51:12;4;4;
61592;PMS5003;47485;51.378;-1.342;2023-02-26T06:53:40;7;6;
61592;PMS5003;47485;51.378;-1.342;2023-02-26T06:56:07;4;4;
61592;PMS5003;47485;51.378;-1.342;2023-02-26T06:58:34;7;6;
61592;PMS5003;47485;51.378;-1.342;2023-02-26T07:01:02;6;4;
61592;PMS5003;47485;51.378;-1.342;2023-02-26T07:03:30;9;7;
61592;PMS5003;47485;51.378;-1.342;2023-02-26T07:05:57;5;4;
61592;PMS5003;47485;51.378;-1.342;2023-02-26T07:08:24;3;3;
61592;PMS5003;47485;51.378;-1.342;2023-02-26T07:10:51;8;6;
61592;PMS5003;47485;51.378;-1.342;2023-02-26T07:13:18;7;7;
61592;PMS5003;47485;51.378;-1.342;2023-02-26T07:15:44;10;7;
61592;PMS5003;47485;51.378;-1.342;2023-02-26T07:18:11;6;5;
61592;PMS5003;47485;51.378;-1.342;2023-02-26T07:20:38;7;4;
61592;PMS5003;47485;51.378;-1.342;2023-02-26T07:23:05;7;4;
61592;PMS5003;47485;51.378;-1.342;2023-02-26T07:25:32;7;6;
61592;PMS5003;47485;51.378;-1.342;2023-02-26T07:27:59;8;5;
61592;PMS5003;47485;51.378;-1.342;2023-02-26T07:30:26;3;3;
61592;PMS5003;47485;51.378;-1.342;2023-02-26T07:32:53;11;5;
61592;PMS5003;47485;51.378;-1.342;2023-02-26T07:35:20;9;7;
61592;PMS5003;47485;51.378;-1.342;2023-02-26T07:37:47;8;4;
61592;PMS5003;47485;51.378;-1.342;2023-02-26T07:40:14;6;6;
61592;PMS5003;47485;51.378;-1.342;2023-02-26T07:42:42;8;4;
61592;PMS5003;47485;51.378;-1.342;2023-02-26T07:45:10;4;2;
61592;PMS5003;47485;51.378;-1.342;2023-02-26T07:47:38;5;4;
61592;PMS5003;47485;51.378;-1.342;2023-02-26T07:50:05;8;5;
61592;PMS5003;47485;51.378;-1.342;2023-02-26T07:52:32;6;4;
61592;PMS5003;47485;51.378;-1.342;2023-02-26T07:55:00;10;8;
61592;PMS5003;47485;51.378;-1.342;2023-02-26T07:57:27;11;5;
61592;PMS5003;47485;51.378;-1.342;2023-02-26T07:59:54;5;4;
61592;PMS5003;47485;51.378;-1.342;2023-02-26T08:02:22;5;3;
61592;PMS5003;47485;51.378;-1.342;2023-02-26T08:04:49;5;4;
61592;PMS5003;47485;51.378;-1.342;2023-02-26T08:07:17;4;3;
61592;PMS5003;47485;51.378;-1.342;2023-02-26T08:09:45;10;5;
61592;PMS5003;47485;51.378;-1.342;2023-02-26T08:12:12;7;5;
61592;PMS5003;47485;51.378;-1.342;2023-02-26T08:14:38;3;3;
61592;PMS5003;47485;51.378;-1.342;2023-02-26T08:17:05;7;4;
61592;PMS5003;47485;51.378;-1.342;2023-02-26T08:19:32;8;5;
61592;PMS5003;47485;51.378;-1.342;2023-02-26T08:22:00;5;3;
61592;PMS5003;47485;51.378;-1.342;2023-02-26T08:24:27;5;4;
61592;PMS5003;47485;51.378;-1.342;2023-02-26T08:26:54;3;2;
61592;PMS5003;47485;51.378;-1.342;2023-02-26T08:29:21;5;5;
61592;PMS5003;47485;51.378;-1.342;2023-02-26T08:31:48;3;3;
61592;PMS5003;47485;51.378;-1.342;2023-02-26T08:34:15;7;3;
61592;PMS5003;47485;51.378;-1.342;2023-02-26T08:36:43;4;4;
61592;PMS5003;47485;51.378;-1.342;2023-02-26T08:39:10;7;5;
61592;PMS5003;47485;51.378;-1.342;2023-02-26T08:41:37;7;3;
61592;PMS5003;47485;51.378;-1.342;2023-02-26T08:44:05;3;3;
61592;PMS5003;47485;51.378;-1.342;2023-02-26T08:46:32;7;5;
61592;PMS5003;47485;51.378;-1.342;2023-02-26T08:49:00;6;3;
61592;PMS5003;47485;51.378;-1.342;2023-02-26T08:51:27;5;2;
61592;PMS5003;47485;51.378;-1.342;2023-02-26T08:53:53;3;2;
61592;PMS5003;47485;51.378;-1.342;2023-02-26T08:56:20;3;3;
61592;PMS5003;47485;51.378;-1.342;2023-02-26T08:58:48;4;2;
61592;PMS5003;47485;51.378;-1.342;2023-02-26T09:01:15;2;2;
61592;PMS5003;47485;51.378;-1.342;2023-02-26T09:03:42;6;3;
61592;PMS5003;47485;51.378;-1.342;2023-02-26T09:06:09;1;1;
61592;PMS5003;47485;51.378;-1.342;2023-02-26T09:08:36;4;2;
61592;PMS5003;47485;51.378;-1.342;2023-02-26T09:11:04;7;3;
61592;PMS5003;47485;51.378;-1.342;2023-02-26T09:13:32;6;5;
61592;PMS5003;47485;51.378;-1.342;2023-02-26T09:15:58;4;2;
61592;PMS5003;47485;51.378;-1.342;2023-02-26T09:18:25;9;3;
61592;PMS5003;47485;51.378;-1.342;2023-02-26T09:20:53;4;4;
61592;PMS5003;47485;51.378;-1.342;2023-02-26T09:23:20;3;3;
61592;PMS5003;47485;51.378;-1.342;2023-02-26T09:25:50;4;3;
61592;PMS5003;47485;51.378;-1.342;2023-02-26T09:28:19;2;2;
61592;PMS5003;47485;51.378;-1.342;2023-02-26T09:30:49;6;4;
61592;PMS5003;47485;51.378;-1.342;2023-02-26T09:33:17;3;2;
61592;PMS5003;47485;51.378;-1.342;2023-02-26T09:35:46;4;3;
61592;PMS5003;47485;51.378;-1.342;2023-02-26T09:38:13;2;1;
61592;PMS5003;47485;51.378;-1.342;2023-02-26T09:40:42;3;3;
61592;PMS5003;47485;51.378;-1.342;2023-02-26T09:43:17;4;2;
61592;PMS5003;47485;51.378;-1.342;2023-02-26T09:45:54;3;1;
61592;PMS5003;47485;51.378;-1.342;2023-02-26T09:48:25;5;3;
61592;PMS5003;47485;51.378;-1.342;2023-02-26T09:50:56;7;3;
61592;PMS5003;47485;51.378;-1.342;2023-02-26T09:53:24;7;3;
61592;PMS5003;47485;51.378;-1.342;2023-02-26T09:55:54;1;0;
61592;PMS5003;47485;51.378;-1.342;2023-02-26T09:58:26;4;2;
61592;PMS5003;47485;51.378;-1.342;2023-02-26T10:00:57;6;3;
61592;PMS5003;47485;51.378;-1.342;2023-02-26T10:03:31;5;3;
61592;PMS5003;47485;51.378;-1.342;2023-02-26T10:06:09;3;2;
61592;PMS5003;47485;51.378;-1.342;2023-02-26T10:08:45;1;1;
61592;PMS5003;47485;51.378;-1.342;2023-02-26T10:11:19;4;3;
61592;PMS5003;47485;51.378;-1.342;2023-02-26T10:13:55;4;2;
61592;PMS5003;47485;51.378;-1.342;2023-02-26T10:16:29;6;3;
61592;PMS5003;47485;51.378;-1.342;2023-02-26T10:19:00;3;3;
61592;PMS5003;47485;51.378;-1.342;2023-02-26T10:21:31;3;3;
61592;PMS5003;47485;51.378;-1.342;2023-02-26T10:24:05;3;1;
61592;PMS5003;47485;51.378;-1.342;2023-02-26T10:26:40;3;3;
61592;PMS5003;47485;51.378;-1.342;2023-02-26T10:29:14;5;1;
61592;PMS5003;47485;51.378;-1.342;2023-02-26T10:31:51;3;1;
61592;PMS5003;47485;51.378;-1.342;2023-02-26T10:34:29;1;1;
61592;PMS5003;47485;51.378;-1.342;2023-02-26T10:37:02;1;0;
61592;PMS5003;47485;51.378;-1.342;2023-02-26T10:39:38;1;1;
61592;PMS5003;47485;51.378;-1.342;2023-02-26T10:42:12;3;0;
61592;PMS5003;47485;51.378;-1.342;2023-02-26T10:44:47;2;2;
61592;PMS5003;47485;51.378;-1.342;2023-02-26T10:47:26;0;0;
61592;PMS5003;47485;51.378;-1.342;2023-02-26T10:50:02;2;1;
61592;PMS5003;47485;51.378;-1.342;2023-02-26T10:52:35;1;1;
61592;PMS5003;47485;51.378;-1.342;2023-02-26T10:55:04;1;0;
61592;PMS5003;47485;51.378;-1.342;2023-02-26T10:57:41;1;1;
61592;PMS5003;47485;51.378;-1.342;2023-02-26T11:00:15;1;1;
61592;PMS5003;47485;51.378;-1.342;2023-02-26T11:02:47;0;0;
61592;PMS5003;47485;51.378;-1.342;2023-02-26T11:05:19;2;1;
61592;PMS5003;47485;51.378;-1.342;2023-02-26T11:07:54;0;0;
61592;PMS5003;47485;51.378;-1.342;2023-02-26T11:10:24;2;1;
61592;PMS5003;47485;51.378;-1.342;2023-02-26T11:13:00;2;2;
61592;PMS5003;47485;51.378;-1.342;2023-02-26T11:15:34;1;0;
61592;PMS5003;47485;51.378;-1.342;2023-02-26T11:18:03;0;0;
61592;PMS5003;47485;51.378;-1.342;2023-02-26T11:20:33;2;0;
61592;PMS5003;47485;51.378;-1.342;2023-02-26T11:23:05;1;0;
61592;PMS5003;47485;51.378;-1.342;2023-02-26T11:25:37;3;0;
61592;PMS5003;47485;51.378;-1.342;2023-02-26T11:28:07;2;1;
61592;PMS5003;47485;51.378;-1.342;2023-02-26T11:30:45;3;1;
61592;PMS5003;47485;51.378;-1.342;2023-02-26T11:33:15;0;0;
61592;PMS5003;47485;51.378;-1.342;2023-02-26T11:35:51;1;1;
61592;PMS5003;47485;51.378;-1.342;2023-02-26T11:38:24;1;1;
61592;PMS5003;47485;51.378;-1.342;2023-02-26T11:40:53;0;0;
61592;PMS5003;47485;51.378;-1.342;2023-02-26T11:43:22;0;0;
61592;PMS5003;47485;51.378;-1.342;2023-02-26T11:45:52;0;0;
61592;PMS5003;47485;51.378;-1.342;2023-02-26T11:48:22;1;0;
61592;PMS5003;47485;51.378;-1.342;2023-02-26T11:50:52;1;0;
61592;PMS5003;47485;51.378;-1.342;2023-02-26T11:53:24;0;0;
61592;PMS5003;47485;51.378;-1.342;2023-02-26T11:55:58;0;0;
61592;PMS5003;47485;51.378;-1.342;2023-02-26T11:58:27;2;2;
61592;PMS5003;47485;51.378;-1.342;2023-02-26T12:00:57;2;2;
61592;PMS5003;47485;51.378;-1.342;2023-02-26T12:03:26;5;4;
61592;PMS5003;47485;51.378;-1.342;2023-02-26T12:05:54;0;0;
61592;PMS5003;47485;51.378;-1.342;2023-02-26T12:08:24;1;0;
61592;PMS5003;47485;51.378;-1.342;2023-02-26T12:11:04;3;1;
61592;PMS5003;47485;51.378;-1.342;2023-02-26T12:13:42;2;0;
61592;PMS5003;47485;51.378;-1.342;2023-02-26T12:16:27;2;0;
61592;PMS5003;47485;51.378;-1.342;2023-02-26T12:19:04;1;1;
61592;PMS5003;47485;51.378;-1.342;2023-02-26T12:21:46;2;1;
61592;PMS5003;47485;51.378;-1.342;2023-02-26T12:24:44;0;0;
61592;PMS5003;47485;51.378;-1.342;2023-02-26T12:27:25;2;1;
61592;PMS5003;47485;51.378;-1.342;2023-02-26T12:30:07;1;0;
61592;PMS5003;47485;51.378;-1.342;2023-02-26T12:32:54;3;2;
61592;PMS5003;47485;51.378;-1.342;2023-02-26T12:35:39;0;0;
61592;PMS5003;47485;51.378;-1.342;2023-02-26T12:38:19;1;1;
61592;PMS5003;47485;51.378;-1.342;2023-02-26T12:40:57;0;0;
61592;PMS5003;47485;51.378;-1.342;2023-02-26T12:43:37;1;1;
61592;PMS5003;47485;51.378;-1.342;2023-02-26T12:46:15;1;0;
61592;PMS5003;47485;51.378;-1.342;2023-02-26T12:49:30;2;0;
61592;PMS5003;47485;51.378;-1.342;2023-02-26T12:52:18;2;1;
61592;PMS5003;47485;51.378;-1.342;2023-02-26T12:55:01;0;0;
61592;PMS5003;47485;51.378;-1.342;2023-02-26T12:57:48;1;1;
61592;PMS5003;47485;51.378;-1.342;2023-02-26T13:00:28;7;5;
61592;PMS5003;47485;51.378;-1.342;2023-02-26T13:03:15;1;1;
61592;PMS5003;47485;51.378;-1.342;2023-02-26T13:06:04;2;0;
61592;PMS5003;47485;51.378;-1.342;2023-02-26T13:08:48;0;0;
61592;PMS5003;47485;51.378;-1.342;2023-02-26T13:11:39;0;0;
61592;PMS5003;47485;51.378;-1.342;2023-02-26T13:14:20;2;1;
61592;PMS5003;47485;51.378;-1.342;2023-02-26T13:16:57;6;1;
61592;PMS5003;47485;51.378;-1.342;2023-02-26T13:19:33;1;0;
61592;PMS5003;47485;51.378;-1.342;2023-02-26T13:22:13;0;0;
61592;PMS5003;47485;51.378;-1.342;2023-02-26T13:24:45;0;0;
61592;PMS5003;47485;51.378;-1.342;2023-02-26T13:27:17;2;2;
61592;PMS5003;47485;51.378;-1.342;2023-02-26T13:29:49;1;1;
61592;PMS5003;47485;51.378;-1.342;2023-02-26T13:32:22;0;0;
61592;PMS5003;47485;51.378;-1.342;2023-02-26T13:34:53;3;0;
61592;PMS5003;47485;51.378;-1.342;2023-02-26T13:37:23;1;0;
61592;PMS5003;47485;51.378;-1.342;2023-02-26T13:39:55;0;0;
61592;PMS5003;47485;51.378;-1.342;2023-02-26T13:42:39;0;0;
61592;PMS5003;47485;51.378;-1.342;2023-02-26T13:45:20;4;2;
61592;PMS5003;47485;51.378;-1.342;2023-02-26T13:48:03;1;1;
61592;PMS5003;47485;51.378;-1.342;2023-02-26T13:50:40;0;0;
61592;PMS5003;47485;51.378;-1.342;2023-02-26T13:54:28;3;0;
61592;PMS5003;47485;51.378;-1.342;2023-02-26T13:57:22;0;0;
61592;PMS5003;47485;51.378;-1.342;2023-02-26T13:59:52;1;1;
61592;PMS5003;47485;51.378;-1.342;2023-02-26T14:02:56;3;0;
61592;PMS5003;47485;51.378;-1.342;2023-02-26T14:05:51;1;0;
61592;PMS5003;47485;51.378;-1.342;2023-02-26T14:08:23;2;1;
61592;PMS5003;47485;51.378;-1.342;2023-02-26T14:11:04;0;0;
61592;PMS5003;47485;51.378;-1.342;2023-02-26T14:14:04;0;0;
61592;PMS5003;47485;51.378;-1.342;2023-02-26T14:16:37;3;1;
61592;PMS5003;47485;51.378;-1.342;2023-02-26T14:19:16;1;1;
61592;PMS5003;47485;51.378;-1.342;2023-02-26T14:21:49;2;2;
61592;PMS5003;47485;51.378;-1.342;2023-02-26T14:24:18;4;3;
61592;PMS5003;47485;51.378;-1.342;2023-02-26T14:26:50;3;2;
61592;PMS5003;47485;51.378;-1.342;2023-02-26T14:29:38;0;0;
61592;PMS5003;47485;51.378;-1.342;2023-02-26T14:32:14;0;0;
61592;PMS5003;47485;51.378;-1.342;2023-02-26T14:34:49;1;1;
61592;PMS5003;47485;51.378;-1.342;2023-02-26T14:37:21;1;0;
61592;PMS5003;47485;51.378;-1.342;2023-02-26T14:39:53;3;2;
61592;PMS5003;47485;51.378;-1.342;2023-02-26T14:42:26;1;1;
61592;PMS5003;47485;51.378;-1.342;2023-02-26T14:45:00;1;0;
61592;PMS5003;47485;51.378;-1.342;2023-02-26T14:47:43;0;0;
61592;PMS5003;47485;51.378;-1.342;2023-02-26T14:50:12;1;1;
61592;PMS5003;47485;51.378;-1.342;2023-02-26T14:52:45;2;0;
61592;PMS5003;47485;51.378;-1.342;2023-02-26T14:55:22;2;0;
61592;PMS5003;47485;51.378;-1.342;2023-02-26T14:58:02;1;0;
61592;PMS5003;47485;51.378;-1.342;2023-02-26T15:00:40;4;2;
61592;PMS5003;47485;51.378;-1.342;2023-02-26T15:03:19;3;1;
61592;PMS5003;47485;51.378;-1.342;2023-02-26T15:06:04;1;1;
61592;PMS5003;47485;51.378;-1.342;2023-02-26T15:08:46;3;2;
61592;PMS5003;47485;51.378;-1.342;2023-02-26T15:11:31;1;1;
61592;PMS5003;47485;51.378;-1.342;2023-02-26T15:14:12;0;0;
61592;PMS5003;47485;51.378;-1.342;2023-02-26T15:16:55;1;1;
61592;PMS5003;47485;51.378;-1.342;2023-02-26T15:19:37;1;1;
61592;PMS5003;47485;51.378;-1.342;2023-02-26T15:22:20;1;1;
61592;PMS5003;47485;51.378;-1.342;2023-02-26T15:24:54;2;2;
61592;PMS5003;47485;51.378;-1.342;2023-02-26T15:27:21;0;0;
61592;PMS5003;47485;51.378;-1.342;2023-02-26T15:29:49;0;0;
61592;PMS5003;47485;51.378;-1.342;2023-02-26T15:32:21;2;0;
61592;PMS5003;47485;51.378;-1.342;2023-02-26T15:34:54;0;0;
61592;PMS5003;47485;51.378;-1.342;2023-02-26T15:37:23;3;0;
61592;PMS5003;47485;51.378;-1.342;2023-02-26T15:39:52;1;0;
61592;PMS5003;47485;51.378;-1.342;2023-02-26T15:42:19;2;0;
61592;PMS5003;47485;51.378;-1.342;2023-02-26T15:44:56;0;0;
61592;PMS5003;47485;51.378;-1.342;2023-02-26T15:47:27;1;1;
61592;PMS5003;47485;51.378;-1.342;2023-02-26T15:49:55;1;1;
61592;PMS5003;47485;51.378;-1.342;2023-02-26T15:52:22;4;0;
61592;PMS5003;47485;51.378;-1.342;2023-02-26T15:54:52;3;1;
61592;PMS5003;47485;51.378;-1.342;2023-02-26T15:57:22;3;2;
61592;PMS5003;47485;51.378;-1.342;2023-02-26T15:59:51;2;1;
61592;PMS5003;47485;51.378;-1.342;2023-02-26T16:02:20;1;1;
61592;PMS5003;47485;51.378;-1.342;2023-02-26T16:04:51;3;1;
61592;PMS5003;47485;51.378;-1.342;2023-02-26T16:07:18;1;1;
61592;PMS5003;47485;51.378;-1.342;2023-02-26T16:09:46;3;3;
61592;PMS5003;47485;51.378;-1.342;2023-02-26T16:12:15;2;1;
61592;PMS5003;47485;51.378;-1.342;2023-02-26T16:14:45;3;1;
61592;PMS5003;47485;51.378;-1.342;2023-02-26T16:17:17;3;3;
61592;PMS5003;47485;51.378;-1.342;2023-02-26T16:19:50;2;1;
61592;PMS5003;47485;51.378;-1.342;2023-02-26T16:22:19;3;2;
61592;PMS5003;47485;51.378;-1.342;2023-02-26T16:24:51;5;5;
61592;PMS5003;47485;51.378;-1.342;2023-02-26T16:27:23;6;3;
61592;PMS5003;47485;51.378;-1.342;2023-02-26T16:29:54;5;4;
61592;PMS5003;47485;51.378;-1.342;2023-02-26T16:32:23;4;4;
61592;PMS5003;47485;51.378;-1.342;2023-02-26T16:34:54;3;3;
61592;PMS5003;47485;51.378;-1.342;2023-02-26T16:37:24;1;1;
61592;PMS5003;47485;51.378;-1.342;2023-02-26T16:39:57;2;1;
61592;PMS5003;47485;51.378;-1.342;2023-02-26T16:42:36;1;1;
61592;PMS5003;47485;51.378;-1.342;2023-02-26T16:45:16;5;2;
61592;PMS5003;47485;51.378;-1.342;2023-02-26T16:47:46;5;2;
61592;PMS5003;47485;51.378;-1.342;2023-02-26T16:50:18;2;2;
61592;PMS5003;47485;51.378;-1.342;2023-02-26T16:52:51;4;2;
61592;PMS5003;47485;51.378;-1.342;2023-02-26T16:55:24;3;2;
61592;PMS5003;47485;51.378;-1.342;2023-02-26T16:57:53;4;3;
61592;PMS5003;47485;51.378;-1.342;2023-02-26T17:00:21;3;2;
61592;PMS5003;47485;51.378;-1.342;2023-02-26T17:02:50;3;2;
61592;PMS5003;47485;51.378;-1.342;2023-02-26T17:05:19;3;3;
61592;PMS5003;47485;51.378;-1.342;2023-02-26T17:07:52;5;3;